sensor_id;sensor_type;location;lat;lon;timestamp;P1;durP1;ratioP1;P2;durP2;ratioP2
20711;SDS011;10517;50.742;4.224;2022-07-10T00:00:13;2.40;;;2.30;;
20711;SDS011;10517;50.742;4.224;2022-07-10T00:02:39;2.83;;;2.55;;
20711;SDS011;10517;50.742;4.224;2022-07-10T00:05:06;2.25;;;2.15;;
20711;SDS011;10517;50.742;4.224;2022-07-10T00:07:33;3.45;;;2.75;;
20711;SDS011;10517;50.742;4.224;2022-07-10T00:09:59;2.90;;;1.90;;
20711;SDS011;10517;50.742;4.224;2022-07-10T00:12:25;2.47;;;2.28;;
20711;SDS011;10517;50.742;4.224;2022-07-10T00:14:51;6.50;;;2.72;;
20711;SDS011;10517;50.742;4.224;2022-07-10T00:17:16;3.28;;;2.38;;
20711;SDS011;10517;50.742;4.224;2022-07-10T00:19:42;3.00;;;2.40;;
20711;SDS011;10517;50.742;4.224;2022-07-10T00:22:08;2.80;;;2.22;;
20711;SDS011;10517;50.742;4.224;2022-07-10T00:24:34;2.40;;;2.20;;
20711;SDS011;10517;50.742;4.224;2022-07-10T00:26:59;4.93;;;2.58;;
20711;SDS011;10517;50.742;4.224;2022-07-10T00:29:25;3.78;;;2.60;;
20711;SDS011;10517;50.742;4.224;2022-07-10T00:31:51;4.90;;;2.72;;
20711;SDS011;10517;50.742;4.224;2022-07-10T00:34:16;4.35;;;2.28;;
20711;SDS011;10517;50.742;4.224;2022-07-10T00:36:42;2.72;;;2.50;;
20711;SDS011;10517;50.742;4.224;2022-07-10T00:39:08;4.10;;;2.50;;
20711;SDS011;10517;50.742;4.224;2022-07-10T00:41:34;2.70;;;2.40;;
20711;SDS011;10517;50.742;4.224;2022-07-10T00:44:01;2.50;;;2.35;;
20711;SDS011;10517;50.742;4.224;2022-07-10T00:46:28;2.97;;;2.40;;
20711;SDS011;10517;50.742;4.224;2022-07-10T00:48:55;2.67;;;2.47;;
20711;SDS011;10517;50.742;4.224;2022-07-10T00:51:23;3.47;;;2.38;;
20711;SDS011;10517;50.742;4.224;2022-07-10T00:53:50;3.78;;;2.60;;
20711;SDS011;10517;50.742;4.224;2022-07-10T00:56:18;4.47;;;3.60;;
20711;SDS011;10517;50.742;4.224;2022-07-10T00:58:46;4.00;;;2.53;;
20711;SDS011;10517;50.742;4.224;2022-07-10T01:01:13;4.38;;;2.85;;
20711;SDS011;10517;50.742;4.224;2022-07-10T01:03:39;2.85;;;2.65;;
20711;SDS011;10517;50.742;4.224;2022-07-10T01:06:05;2.88;;;2.67;;
20711;SDS011;10517;50.742;4.224;2022-07-10T01:08:30;2.45;;;2.35;;
20711;SDS011;10517;50.742;4.224;2022-07-10T01:10:57;2.65;;;2.47;;
20711;SDS011;10517;50.742;4.224;2022-07-10T01:13:23;4.65;;;2.63;;
20711;SDS011;10517;50.742;4.224;2022-07-10T01:15:49;3.25;;;3.05;;
20711;SDS011;10517;50.742;4.224;2022-07-10T01:18:15;4.75;;;3.15;;
20711;SDS011;10517;50.742;4.224;2022-07-10T01:20:41;3.72;;;2.75;;
20711;SDS011;10517;50.742;4.224;2022-07-10T01:23:07;3.00;;;2.22;;
20711;SDS011;10517;50.742;4.224;2022-07-10T01:25:32;2.40;;;2.30;;
20711;SDS011;10517;50.742;4.224;2022-07-10T01:27:58;3.88;;;2.58;;
20711;SDS011;10517;50.742;4.224;2022-07-10T01:30:24;2.30;;;2.17;;
20711;SDS011;10517;50.742;4.224;2022-07-10T01:32:50;2.55;;;2.45;;
20711;SDS011;10517;50.742;4.224;2022-07-10T01:35:17;2.25;;;2.15;;
20711;SDS011;10517;50.742;4.224;2022-07-10T01:37:43;2.60;;;2.40;;
20711;SDS011;10517;50.742;4.224;2022-07-10T01:40:09;2.58;;;2.47;;
20711;SDS011;10517;50.742;4.224;2022-07-10T01:42:36;2.80;;;2.60;;
20711;SDS011;10517;50.742;4.224;2022-07-10T01:45:04;3.90;;;2.85;;
20711;SDS011;10517;50.742;4.224;2022-07-10T01:47:31;2.92;;;2.47;;
20711;SDS011;10517;50.742;4.224;2022-07-10T01:49:57;4.47;;;2.60;;
20711;SDS011;10517;50.742;4.224;2022-07-10T01:52:22;2.53;;;2.33;;
20711;SDS011;10517;50.742;4.224;2022-07-10T01:54:48;8.32;;;2.53;;
20711;SDS011;10517;50.742;4.224;2022-07-10T01:57:14;6.18;;;3.00;;
20711;SDS011;10517;50.742;4.224;2022-07-10T01:59:40;2.53;;;2.42;;
20711;SDS011;10517;50.742;4.224;2022-07-10T02:02:06;2.63;;;2.42;;
20711;SDS011;10517;50.742;4.224;2022-07-10T02:04:32;2.53;;;2.33;;
20711;SDS011;10517;50.742;4.224;2022-07-10T02:07:07;2.25;;;2.05;;
20711;SDS011;10517;50.742;4.224;2022-07-10T02:09:34;5.55;;;2.63;;
20711;SDS011;10517;50.742;4.224;2022-07-10T02:11:59;6.82;;;2.30;;
20711;SDS011;10517;50.742;4.224;2022-07-10T02:14:26;7.90;;;3.17;;
20711;SDS011;10517;50.742;4.224;2022-07-10T02:16:51;2.60;;;2.40;;
20711;SDS011;10517;50.742;4.224;2022-07-10T02:19:17;4.82;;;2.47;;
20711;SDS011;10517;50.742;4.224;2022-07-10T02:21:43;2.42;;;2.25;;
20711;SDS011;10517;50.742;4.224;2022-07-10T02:24:08;3.90;;;2.65;;
20711;SDS011;10517;50.742;4.224;2022-07-10T02:26:34;4.20;;;2.30;;
20711;SDS011;10517;50.742;4.224;2022-07-10T02:29:00;3.47;;;2.75;;
20711;SDS011;10517;50.742;4.224;2022-07-10T02:31:25;4.38;;;2.45;;
20711;SDS011;10517;50.742;4.224;2022-07-10T02:33:51;2.60;;;2.40;;
20711;SDS011;10517;50.742;4.224;2022-07-10T02:36:16;3.03;;;2.72;;
20711;SDS011;10517;50.742;4.224;2022-07-10T02:38:42;3.10;;;2.80;;
20711;SDS011;10517;50.742;4.224;2022-07-10T02:41:08;3.08;;;2.78;;
20711;SDS011;10517;50.742;4.224;2022-07-10T02:43:33;2.70;;;2.60;;
20711;SDS011;10517;50.742;4.224;2022-07-10T02:45:59;2.97;;;2.78;;
20711;SDS011;10517;50.742;4.224;2022-07-10T02:48:25;8.00;;;2.83;;
20711;SDS011;10517;50.742;4.224;2022-07-10T02:50:50;3.22;;;2.88;;
20711;SDS011;10517;50.742;4.224;2022-07-10T02:53:16;2.90;;;2.70;;
20711;SDS011;10517;50.742;4.224;2022-07-10T02:55:41;5.03;;;3.08;;
20711;SDS011;10517;50.742;4.224;2022-07-10T02:58:07;3.53;;;3.23;;
20711;SDS011;10517;50.742;4.224;2022-07-10T03:00:34;3.40;;;3.10;;
20711;SDS011;10517;50.742;4.224;2022-07-10T03:03:00;3.22;;;2.92;;
20711;SDS011;10517;50.742;4.224;2022-07-10T03:05:26;5.85;;;3.05;;
20711;SDS011;10517;50.742;4.224;2022-07-10T03:07:52;4.53;;;3.22;;
20711;SDS011;10517;50.742;4.224;2022-07-10T03:10:17;8.10;;;3.30;;
20711;SDS011;10517;50.742;4.224;2022-07-10T03:12:44;6.70;;;3.50;;
20711;SDS011;10517;50.742;4.224;2022-07-10T03:15:10;3.40;;;3.20;;
20711;SDS011;10517;50.742;4.224;2022-07-10T03:17:36;3.23;;;3.03;;
20711;SDS011;10517;50.742;4.224;2022-07-10T03:20:01;7.63;;;4.30;;
20711;SDS011;10517;50.742;4.224;2022-07-10T03:22:27;3.33;;;3.03;;
20711;SDS011;10517;50.742;4.224;2022-07-10T03:24:53;3.87;;;3.30;;
20711;SDS011;10517;50.742;4.224;2022-07-10T03:27:19;8.83;;;3.40;;
20711;SDS011;10517;50.742;4.224;2022-07-10T03:29:45;7.73;;;3.20;;
20711;SDS011;10517;50.742;4.224;2022-07-10T03:32:11;3.37;;;3.07;;
20711;SDS011;10517;50.742;4.224;2022-07-10T03:34:37;3.50;;;3.20;;
20711;SDS011;10517;50.742;4.224;2022-07-10T03:37:02;4.07;;;3.47;;
20711;SDS011;10517;50.742;4.224;2022-07-10T03:39:28;3.87;;;3.57;;
20711;SDS011;10517;50.742;4.224;2022-07-10T03:41:54;3.42;;;3.13;;
20711;SDS011;10517;50.742;4.224;2022-07-10T03:44:19;3.60;;;3.27;;
20711;SDS011;10517;50.742;4.224;2022-07-10T03:46:45;3.37;;;3.10;;
20711;SDS011;10517;50.742;4.224;2022-07-10T03:49:11;5.37;;;3.53;;
20711;SDS011;10517;50.742;4.224;2022-07-10T03:51:36;4.07;;;3.53;;
20711;SDS011;10517;50.742;4.224;2022-07-10T03:54:02;3.80;;;3.60;;
20711;SDS011;10517;50.742;4.224;2022-07-10T03:56:28;4.47;;;3.87;;
20711;SDS011;10517;50.742;4.224;2022-07-10T03:59:12;5.47;;;3.80;;
20711;SDS011;10517;50.742;4.224;2022-07-10T04:01:38;5.00;;;4.23;;
20711;SDS011;10517;50.742;4.224;2022-07-10T04:04:04;4.53;;;3.87;;
20711;SDS011;10517;50.742;4.224;2022-07-10T04:06:29;6.13;;;3.90;;
20711;SDS011;10517;50.742;4.224;2022-07-10T04:08:55;4.70;;;4.40;;
20711;SDS011;10517;50.742;4.224;2022-07-10T04:11:20;4.67;;;3.80;;
20711;SDS011;10517;50.742;4.224;2022-07-10T04:13:46;4.03;;;3.60;;
20711;SDS011;10517;50.742;4.224;2022-07-10T04:16:11;4.67;;;3.87;;
20711;SDS011;10517;50.742;4.224;2022-07-10T04:18:38;5.83;;;3.40;;
20711;SDS011;10517;50.742;4.224;2022-07-10T04:21:04;3.90;;;3.33;;
20711;SDS011;10517;50.742;4.224;2022-07-10T04:23:31;4.27;;;3.83;;
20711;SDS011;10517;50.742;4.224;2022-07-10T04:25:57;4.07;;;3.70;;
20711;SDS011;10517;50.742;4.224;2022-07-10T04:28:23;7.30;;;3.70;;
20711;SDS011;10517;50.742;4.224;2022-07-10T04:30:49;5.80;;;3.80;;
20711;SDS011;10517;50.742;4.224;2022-07-10T04:33:14;6.83;;;4.33;;
20711;SDS011;10517;50.742;4.224;2022-07-10T04:35:40;5.50;;;4.70;;
20711;SDS011;10517;50.742;4.224;2022-07-10T04:38:06;6.00;;;4.20;;
20711;SDS011;10517;50.742;4.224;2022-07-10T04:40:31;4.03;;;3.70;;
20711;SDS011;10517;50.742;4.224;2022-07-10T04:42:57;4.07;;;3.73;;
20711;SDS011;10517;50.742;4.224;2022-07-10T04:45:22;3.97;;;3.67;;
20711;SDS011;10517;50.742;4.224;2022-07-10T04:47:48;4.40;;;4.07;;
20711;SDS011;10517;50.742;4.224;2022-07-10T04:50:14;5.05;;;3.97;;
20711;SDS011;10517;50.742;4.224;2022-07-10T04:52:39;4.40;;;4.00;;
20711;SDS011;10517;50.742;4.224;2022-07-10T04:55:05;3.70;;;3.33;;
20711;SDS011;10517;50.742;4.224;2022-07-10T04:57:31;4.38;;;3.97;;
20711;SDS011;10517;50.742;4.224;2022-07-10T04:59:57;3.83;;;3.50;;
20711;SDS011;10517;50.742;4.224;2022-07-10T05:02:23;5.80;;;4.30;;
20711;SDS011;10517;50.742;4.224;2022-07-10T05:04:49;7.63;;;3.87;;
20711;SDS011;10517;50.742;4.224;2022-07-10T05:07:14;4.63;;;3.80;;
20711;SDS011;10517;50.742;4.224;2022-07-10T05:09:40;4.50;;;4.10;;
20711;SDS011;10517;50.742;4.224;2022-07-10T05:12:06;7.63;;;4.28;;
20711;SDS011;10517;50.742;4.224;2022-07-10T05:14:32;3.85;;;3.50;;
20711;SDS011;10517;50.742;4.224;2022-07-10T05:16:57;3.38;;;3.13;;
20711;SDS011;10517;50.742;4.224;2022-07-10T05:19:23;13.95;;;4.10;;
20711;SDS011;10517;50.742;4.224;2022-07-10T05:21:49;6.13;;;3.60;;
20711;SDS011;10517;50.742;4.224;2022-07-10T05:24:14;5.72;;;4.10;;
20711;SDS011;10517;50.742;4.224;2022-07-10T05:26:40;6.13;;;4.22;;
20711;SDS011;10517;50.742;4.224;2022-07-10T05:29:06;6.50;;;4.53;;
20711;SDS011;10517;50.742;4.224;2022-07-10T05:31:31;4.85;;;4.43;;
20711;SDS011;10517;50.742;4.224;2022-07-10T05:33:57;6.07;;;5.00;;
20711;SDS011;10517;50.742;4.224;2022-07-10T05:36:23;6.45;;;4.38;;
20711;SDS011;10517;50.742;4.224;2022-07-10T05:38:49;6.45;;;3.80;;
20711;SDS011;10517;50.742;4.224;2022-07-10T05:41:15;6.18;;;4.05;;
20711;SDS011;10517;50.742;4.224;2022-07-10T05:43:41;4.30;;;3.67;;
20711;SDS011;10517;50.742;4.224;2022-07-10T05:46:06;7.55;;;3.70;;
20711;SDS011;10517;50.742;4.224;2022-07-10T05:48:32;5.38;;;4.20;;
20711;SDS011;10517;50.742;4.224;2022-07-10T05:50:58;5.75;;;3.67;;
20711;SDS011;10517;50.742;4.224;2022-07-10T05:53:23;5.35;;;3.47;;
20711;SDS011;10517;50.742;4.224;2022-07-10T05:55:49;4.00;;;3.70;;
20711;SDS011;10517;50.742;4.224;2022-07-10T05:58:15;4.50;;;3.97;;
20711;SDS011;10517;50.742;4.224;2022-07-10T06:00:41;4.53;;;3.15;;
20711;SDS011;10517;50.742;4.224;2022-07-10T06:03:10;4.00;;;2.90;;
20711;SDS011;10517;50.742;4.224;2022-07-10T06:05:37;3.90;;;2.60;;
20711;SDS011;10517;50.742;4.224;2022-07-10T06:08:03;4.80;;;2.88;;
20711;SDS011;10517;50.742;4.224;2022-07-10T06:10:29;8.88;;;3.28;;
20711;SDS011;10517;50.742;4.224;2022-07-10T06:12:54;10.30;;;2.20;;
20711;SDS011;10517;50.742;4.224;2022-07-10T06:15:21;2.30;;;2.10;;
20711;SDS011;10517;50.742;4.224;2022-07-10T06:17:46;3.75;;;1.90;;
20711;SDS011;10517;50.742;4.224;2022-07-10T06:20:12;2.78;;;2.50;;
20711;SDS011;10517;50.742;4.224;2022-07-10T06:22:37;2.65;;;1.73;;
20711;SDS011;10517;50.742;4.224;2022-07-10T06:25:05;4.80;;;2.75;;
20711;SDS011;10517;50.742;4.224;2022-07-10T06:27:32;2.53;;;2.35;;
20711;SDS011;10517;50.742;4.224;2022-07-10T06:29:58;4.30;;;1.98;;
20711;SDS011;10517;50.742;4.224;2022-07-10T06:32:25;4.35;;;2.30;;
20711;SDS011;10517;50.742;4.224;2022-07-10T06:34:51;4.78;;;2.45;;
20711;SDS011;10517;50.742;4.224;2022-07-10T06:37:18;5.85;;;1.98;;
20711;SDS011;10517;50.742;4.224;2022-07-10T06:39:44;2.20;;;1.92;;
20711;SDS011;10517;50.742;4.224;2022-07-10T06:42:11;4.78;;;2.45;;
20711;SDS011;10517;50.742;4.224;2022-07-10T06:44:37;2.75;;;2.08;;
20711;SDS011;10517;50.742;4.224;2022-07-10T06:47:03;7.13;;;2.17;;
20711;SDS011;10517;50.742;4.224;2022-07-10T06:49:47;3.40;;;2.10;;
20711;SDS011;10517;50.742;4.224;2022-07-10T06:52:14;3.60;;;2.20;;
20711;SDS011;10517;50.742;4.224;2022-07-10T06:54:40;2.75;;;2.50;;
20711;SDS011;10517;50.742;4.224;2022-07-10T06:57:07;2.20;;;2.00;;
20711;SDS011;10517;50.742;4.224;2022-07-10T06:59:32;2.35;;;2.10;;
20711;SDS011;10517;50.742;4.224;2022-07-10T07:01:58;2.38;;;2.17;;
20711;SDS011;10517;50.742;4.224;2022-07-10T07:04:24;2.00;;;1.75;;
20711;SDS011;10517;50.742;4.224;2022-07-10T07:06:50;2.10;;;2.00;;
20711;SDS011;10517;50.742;4.224;2022-07-10T07:09:15;4.10;;;2.30;;
20711;SDS011;10517;50.742;4.224;2022-07-10T07:11:41;3.05;;;2.22;;
20711;SDS011;10517;50.742;4.224;2022-07-10T07:14:07;2.20;;;2.08;;
20711;SDS011;10517;50.742;4.224;2022-07-10T07:16:32;3.75;;;2.20;;
20711;SDS011;10517;50.742;4.224;2022-07-10T07:19:06;5.10;;;2.03;;
20711;SDS011;10517;50.742;4.224;2022-07-10T07:21:33;2.75;;;1.83;;
20711;SDS011;10517;50.742;4.224;2022-07-10T07:24:17;2.13;;;2.03;;
20711;SDS011;10517;50.742;4.224;2022-07-10T07:26:44;2.65;;;2.03;;
20711;SDS011;10517;50.742;4.224;2022-07-10T07:29:12;3.58;;;2.03;;
20711;SDS011;10517;50.742;4.224;2022-07-10T07:31:39;2.75;;;2.55;;
20711;SDS011;10517;50.742;4.224;2022-07-10T07:34:04;7.03;;;2.88;;
20711;SDS011;10517;50.742;4.224;2022-07-10T07:36:30;1.92;;;1.83;;
20711;SDS011;10517;50.742;4.224;2022-07-10T07:38:56;2.15;;;1.80;;
20711;SDS011;10517;50.742;4.224;2022-07-10T07:41:23;1.92;;;1.67;;
20711;SDS011;10517;50.742;4.224;2022-07-10T07:43:49;2.47;;;1.90;;
20711;SDS011;10517;50.742;4.224;2022-07-10T07:46:15;2.13;;;2.03;;
20711;SDS011;10517;50.742;4.224;2022-07-10T07:48:41;2.78;;;2.03;;
20711;SDS011;10517;50.742;4.224;2022-07-10T07:51:07;1.75;;;1.65;;
20711;SDS011;10517;50.742;4.224;2022-07-10T07:53:32;1.80;;;1.77;;
20711;SDS011;10517;50.742;4.224;2022-07-10T07:55:58;2.03;;;1.80;;
20711;SDS011;10517;50.742;4.224;2022-07-10T07:58:24;2.17;;;1.65;;
20711;SDS011;10517;50.742;4.224;2022-07-10T08:00:50;3.92;;;1.90;;
20711;SDS011;10517;50.742;4.224;2022-07-10T08:03:16;3.03;;;2.22;;
20711;SDS011;10517;50.742;4.224;2022-07-10T08:05:41;2.20;;;2.00;;
20711;SDS011;10517;50.742;4.224;2022-07-10T08:08:07;1.95;;;1.85;;
20711;SDS011;10517;50.742;4.224;2022-07-10T08:10:36;2.10;;;1.92;;
20711;SDS011;10517;50.742;4.224;2022-07-10T08:13:02;4.80;;;2.03;;
20711;SDS011;10517;50.742;4.224;2022-07-10T08:15:28;9.77;;;2.28;;
20711;SDS011;10517;50.742;4.224;2022-07-10T08:17:55;3.22;;;1.92;;
20711;SDS011;10517;50.742;4.224;2022-07-10T08:20:22;2.80;;;2.30;;
20711;SDS011;10517;50.742;4.224;2022-07-10T08:22:48;6.50;;;1.92;;
20711;SDS011;10517;50.742;4.224;2022-07-10T08:25:14;9.40;;;2.88;;
20711;SDS011;10517;50.742;4.224;2022-07-10T08:27:40;2.08;;;1.98;;
20711;SDS011;10517;50.742;4.224;2022-07-10T08:30:06;1.98;;;1.85;;
20711;SDS011;10517;50.742;4.224;2022-07-10T08:32:36;2.28;;;2.17;;
20711;SDS011;10517;50.742;4.224;2022-07-10T08:35:03;1.80;;;1.70;;
20711;SDS011;10517;50.742;4.224;2022-07-10T08:37:29;2.30;;;2.20;;
20711;SDS011;10517;50.742;4.224;2022-07-10T08:39:55;1.67;;;1.67;;
20711;SDS011;10517;50.742;4.224;2022-07-10T08:42:21;3.28;;;1.85;;
20711;SDS011;10517;50.742;4.224;2022-07-10T08:44:47;6.72;;;2.13;;
20711;SDS011;10517;50.742;4.224;2022-07-10T08:47:13;1.73;;;1.63;;
20711;SDS011;10517;50.742;4.224;2022-07-10T08:49:44;1.88;;;1.77;;
20711;SDS011;10517;50.742;4.224;2022-07-10T08:52:21;4.57;;;2.00;;
20711;SDS011;10517;50.742;4.224;2022-07-10T08:54:51;1.80;;;1.70;;
20711;SDS011;10517;50.742;4.224;2022-07-10T08:57:18;2.55;;;2.08;;
20711;SDS011;10517;50.742;4.224;2022-07-10T08:59:45;5.93;;;2.00;;
20711;SDS011;10517;50.742;4.224;2022-07-10T09:02:10;3.58;;;1.88;;
20711;SDS011;10517;50.742;4.224;2022-07-10T09:04:36;2.13;;;1.92;;
20711;SDS011;10517;50.742;4.224;2022-07-10T09:07:01;3.75;;;2.10;;
20711;SDS011;10517;50.742;4.224;2022-07-10T09:09:29;2.45;;;1.80;;
20711;SDS011;10517;50.742;4.224;2022-07-10T09:11:58;5.55;;;2.17;;
20711;SDS011;10517;50.742;4.224;2022-07-10T09:14:27;4.25;;;1.98;;
20711;SDS011;10517;50.742;4.224;2022-07-10T09:16:53;2.00;;;1.90;;
20711;SDS011;10517;50.742;4.224;2022-07-10T09:19:19;2.65;;;2.45;;
20711;SDS011;10517;50.742;4.224;2022-07-10T09:22:04;2.15;;;1.80;;
20711;SDS011;10517;50.742;4.224;2022-07-10T09:24:35;1.95;;;1.85;;
20711;SDS011;10517;50.742;4.224;2022-07-10T09:27:03;2.45;;;2.25;;
20711;SDS011;10517;50.742;4.224;2022-07-10T09:29:29;2.85;;;2.22;;
20711;SDS011;10517;50.742;4.224;2022-07-10T09:31:57;2.20;;;2.03;;
20711;SDS011;10517;50.742;4.224;2022-07-10T09:34:34;2.60;;;1.88;;
20711;SDS011;10517;50.742;4.224;2022-07-10T09:47:42;2.13;;;1.95;;
20711;SDS011;10517;50.742;4.224;2022-07-10T09:50:32;1.95;;;1.85;;
20711;SDS011;10517;50.742;4.224;2022-07-10T09:53:01;2.75;;;1.90;;
20711;SDS011;10517;50.742;4.224;2022-07-10T09:55:37;1.80;;;1.70;;
20711;SDS011;10517;50.742;4.224;2022-07-10T10:00:30;1.90;;;1.80;;
20711;SDS011;10517;50.742;4.224;2022-07-10T10:02:58;2.00;;;1.90;;
20711;SDS011;10517;50.742;4.224;2022-07-10T10:05:33;4.97;;;1.95;;
20711;SDS011;10517;50.742;4.224;2022-07-10T10:08:01;5.68;;;2.35;;
20711;SDS011;10517;50.742;4.224;2022-07-10T10:10:50;1.85;;;1.75;;
20711;SDS011;10517;50.742;4.224;2022-07-10T10:13:25;2.22;;;1.60;;
20711;SDS011;10517;50.742;4.224;2022-07-10T10:15:52;1.80;;;1.70;;
20711;SDS011;10517;50.742;4.224;2022-07-10T10:18:19;1.80;;;1.70;;
20711;SDS011;10517;50.742;4.224;2022-07-10T10:20:47;4.85;;;2.47;;
20711;SDS011;10517;50.742;4.224;2022-07-10T10:23:14;3.08;;;2.13;;
20711;SDS011;10517;50.742;4.224;2022-07-10T10:25:45;2.35;;;2.25;;
20711;SDS011;10517;50.742;4.224;2022-07-10T10:28:16;2.80;;;1.80;;
20711;SDS011;10517;50.742;4.224;2022-07-10T10:30:48;2.40;;;2.20;;
20711;SDS011;10517;50.742;4.224;2022-07-10T10:36:05;2.75;;;2.00;;
20711;SDS011;10517;50.742;4.224;2022-07-10T10:41:31;2.20;;;2.08;;
20711;SDS011;10517;50.742;4.224;2022-07-10T10:49:19;5.18;;;2.28;;
20711;SDS011;10517;50.742;4.224;2022-07-10T10:52:10;3.95;;;2.00;;
20711;SDS011;10517;50.742;4.224;2022-07-10T10:59:56;3.53;;;2.63;;
20711;SDS011;10517;50.742;4.224;2022-07-10T11:02:26;2.50;;;2.40;;
20711;SDS011;10517;50.742;4.224;2022-07-10T11:10:27;3.72;;;2.38;;
20711;SDS011;10517;50.742;4.224;2022-07-10T11:13:08;2.53;;;2.40;;
20711;SDS011;10517;50.742;4.224;2022-07-10T11:15:47;2.40;;;2.30;;
20711;SDS011;10517;50.742;4.224;2022-07-10T11:18:17;3.13;;;2.22;;
20711;SDS011;10517;50.742;4.224;2022-07-10T11:20:45;3.88;;;2.42;;
20711;SDS011;10517;50.742;4.224;2022-07-10T11:23:35;3.67;;;3.28;;
20711;SDS011;10517;50.742;4.224;2022-07-10T11:26:24;2.47;;;2.28;;
20711;SDS011;10517;50.742;4.224;2022-07-10T11:29:01;2.67;;;2.30;;
20711;SDS011;10517;50.742;4.224;2022-07-10T11:31:30;3.38;;;2.35;;
20711;SDS011;10517;50.742;4.224;2022-07-10T11:33:59;2.67;;;2.40;;
20711;SDS011;10517;50.742;4.224;2022-07-10T11:36:25;8.27;;;2.60;;
20711;SDS011;10517;50.742;4.224;2022-07-10T11:39:03;2.20;;;2.10;;
20711;SDS011;10517;50.742;4.224;2022-07-10T11:41:44;2.28;;;2.17;;
20711;SDS011;10517;50.742;4.224;2022-07-10T11:44:13;2.40;;;2.20;;
20711;SDS011;10517;50.742;4.224;2022-07-10T11:46:41;4.18;;;2.20;;
20711;SDS011;10517;50.742;4.224;2022-07-10T11:49:09;2.42;;;2.22;;
20711;SDS011;10517;50.742;4.224;2022-07-10T11:51:36;2.17;;;2.08;;
20711;SDS011;10517;50.742;4.224;2022-07-10T11:54:08;4.05;;;2.47;;
20711;SDS011;10517;50.742;4.224;2022-07-10T11:56:41;2.08;;;1.98;;
20711;SDS011;10517;50.742;4.224;2022-07-10T11:59:11;2.30;;;2.20;;
20711;SDS011;10517;50.742;4.224;2022-07-10T12:01:41;3.10;;;2.63;;
20711;SDS011;10517;50.742;4.224;2022-07-10T12:04:11;2.20;;;2.10;;
20711;SDS011;10517;50.742;4.224;2022-07-10T12:06:39;2.80;;;2.55;;
20711;SDS011;10517;50.742;4.224;2022-07-10T12:09:14;3.85;;;2.20;;
20711;SDS011;10517;50.742;4.224;2022-07-10T12:11:41;3.38;;;2.63;;
20711;SDS011;10517;50.742;4.224;2022-07-10T12:14:09;3.30;;;2.40;;
20711;SDS011;10517;50.742;4.224;2022-07-10T12:16:39;2.40;;;2.22;;
20711;SDS011;10517;50.742;4.224;2022-07-10T12:19:07;6.35;;;2.25;;
20711;SDS011;10517;50.742;4.224;2022-07-10T12:21:34;2.80;;;2.60;;
20711;SDS011;10517;50.742;4.224;2022-07-10T12:24:00;2.70;;;2.50;;
20711;SDS011;10517;50.742;4.224;2022-07-10T12:26:32;3.08;;;2.47;;
20711;SDS011;10517;50.742;4.224;2022-07-10T12:28:59;3.17;;;2.30;;
20711;SDS011;10517;50.742;4.224;2022-07-10T12:31:26;2.40;;;2.30;;
20711;SDS011;10517;50.742;4.224;2022-07-10T12:33:54;2.30;;;2.20;;
20711;SDS011;10517;50.742;4.224;2022-07-10T12:36:47;3.58;;;2.60;;
20711;SDS011;10517;50.742;4.224;2022-07-10T12:39:20;2.53;;;2.42;;
20711;SDS011;10517;50.742;4.224;2022-07-10T12:44:40;3.70;;;2.00;;
20711;SDS011;10517;50.742;4.224;2022-07-10T12:47:09;1.80;;;1.80;;
20711;SDS011;10517;50.742;4.224;2022-07-10T12:50:01;2.53;;;2.30;;
20711;SDS011;10517;50.742;4.224;2022-07-10T12:52:35;3.80;;;2.45;;
20711;SDS011;10517;50.742;4.224;2022-07-10T12:55:19;2.40;;;2.30;;
20711;SDS011;10517;50.742;4.224;2022-07-10T12:57:54;4.43;;;2.30;;
20711;SDS011;10517;50.742;4.224;2022-07-10T13:00:21;2.53;;;2.33;;
20711;SDS011;10517;50.742;4.224;2022-07-10T13:02:48;2.83;;;2.63;;
20711;SDS011;10517;50.742;4.224;2022-07-10T13:05:31;2.47;;;2.28;;
20711;SDS011;10517;50.742;4.224;2022-07-10T13:10:35;2.65;;;2.55;;
20711;SDS011;10517;50.742;4.224;2022-07-10T13:13:01;2.50;;;2.30;;
20711;SDS011;10517;50.742;4.224;2022-07-10T13:15:27;2.53;;;2.42;;
20711;SDS011;10517;50.742;4.224;2022-07-10T13:17:54;2.28;;;2.20;;
20711;SDS011;10517;50.742;4.224;2022-07-10T13:20:20;2.85;;;2.60;;
20711;SDS011;10517;50.742;4.224;2022-07-10T13:22:46;2.55;;;2.45;;
20711;SDS011;10517;50.742;4.224;2022-07-10T13:25:11;2.72;;;2.53;;
20711;SDS011;10517;50.742;4.224;2022-07-10T13:27:37;2.63;;;2.53;;
20711;SDS011;10517;50.742;4.224;2022-07-10T13:30:04;2.80;;;2.70;;
20711;SDS011;10517;50.742;4.224;2022-07-10T13:32:30;3.10;;;2.90;;
20711;SDS011;10517;50.742;4.224;2022-07-10T13:34:56;2.90;;;2.60;;
20711;SDS011;10517;50.742;4.224;2022-07-10T13:37:22;2.70;;;2.60;;
20711;SDS011;10517;50.742;4.224;2022-07-10T13:39:48;2.70;;;2.60;;
20711;SDS011;10517;50.742;4.224;2022-07-10T13:42:13;2.83;;;2.63;;
20711;SDS011;10517;50.742;4.224;2022-07-10T13:44:39;2.60;;;2.50;;
20711;SDS011;10517;50.742;4.224;2022-07-10T13:47:05;3.10;;;2.83;;
20711;SDS011;10517;50.742;4.224;2022-07-10T13:49:31;2.90;;;2.40;;
20711;SDS011;10517;50.742;4.224;2022-07-10T13:51:56;2.55;;;2.45;;
20711;SDS011;10517;50.742;4.224;2022-07-10T13:54:22;2.60;;;2.50;;
20711;SDS011;10517;50.742;4.224;2022-07-10T13:56:48;2.72;;;2.60;;
20711;SDS011;10517;50.742;4.224;2022-07-10T13:59:14;3.00;;;2.80;;
20711;SDS011;10517;50.742;4.224;2022-07-10T14:01:39;2.72;;;2.63;;
20711;SDS011;10517;50.742;4.224;2022-07-10T14:04:05;2.70;;;2.50;;
20711;SDS011;10517;50.742;4.224;2022-07-10T14:06:31;3.08;;;2.75;;
20711;SDS011;10517;50.742;4.224;2022-07-10T14:08:57;3.30;;;3.10;;
20711;SDS011;10517;50.742;4.224;2022-07-10T14:11:23;2.65;;;2.53;;
20711;SDS011;10517;50.742;4.224;2022-07-10T14:13:49;2.97;;;2.75;;
20711;SDS011;10517;50.742;4.224;2022-07-10T14:16:14;2.75;;;2.60;;
20711;SDS011;10517;50.742;4.224;2022-07-10T14:18:40;2.63;;;2.53;;
20711;SDS011;10517;50.742;4.224;2022-07-10T14:21:10;3.28;;;2.30;;
20711;SDS011;10517;50.742;4.224;2022-07-10T14:23:38;2.47;;;2.35;;
20711;SDS011;10517;50.742;4.224;2022-07-10T14:26:09;2.80;;;2.60;;
20711;SDS011;10517;50.742;4.224;2022-07-10T14:28:35;2.42;;;2.30;;
20711;SDS011;10517;50.742;4.224;2022-07-10T14:31:02;3.13;;;2.83;;
20711;SDS011;10517;50.742;4.224;2022-07-10T14:33:32;2.60;;;2.40;;
20711;SDS011;10517;50.742;4.224;2022-07-10T14:35:58;2.60;;;2.40;;
20711;SDS011;10517;50.742;4.224;2022-07-10T14:38:25;2.55;;;2.33;;
20711;SDS011;10517;50.742;4.224;2022-07-10T14:40:50;2.17;;;2.08;;
20711;SDS011;10517;50.742;4.224;2022-07-10T14:43:18;2.60;;;2.40;;
20711;SDS011;10517;50.742;4.224;2022-07-10T14:45:44;2.33;;;2.10;;
20711;SDS011;10517;50.742;4.224;2022-07-10T14:48:09;2.95;;;2.30;;
20711;SDS011;10517;50.742;4.224;2022-07-10T14:50:35;2.30;;;2.20;;
20711;SDS011;10517;50.742;4.224;2022-07-10T14:53:01;2.40;;;2.30;;
20711;SDS011;10517;50.742;4.224;2022-07-10T14:55:27;3.47;;;2.45;;
20711;SDS011;10517;50.742;4.224;2022-07-10T14:57:52;2.70;;;2.47;;
20711;SDS011;10517;50.742;4.224;2022-07-10T15:00:18;2.50;;;2.40;;
20711;SDS011;10517;50.742;4.224;2022-07-10T15:02:44;2.80;;;2.70;;
20711;SDS011;10517;50.742;4.224;2022-07-10T15:05:10;3.03;;;2.80;;
20711;SDS011;10517;50.742;4.224;2022-07-10T15:07:35;2.50;;;2.40;;
20711;SDS011;10517;50.742;4.224;2022-07-10T15:10:01;2.50;;;2.30;;
20711;SDS011;10517;50.742;4.224;2022-07-10T15:12:27;2.25;;;2.15;;
20711;SDS011;10517;50.742;4.224;2022-07-10T15:14:52;2.33;;;2.22;;
20711;SDS011;10517;50.742;4.224;2022-07-10T15:17:18;2.28;;;2.17;;
20711;SDS011;10517;50.742;4.224;2022-07-10T15:19:44;2.88;;;2.67;;
20711;SDS011;10517;50.742;4.224;2022-07-10T15:22:11;2.53;;;2.42;;
20711;SDS011;10517;50.742;4.224;2022-07-10T15:24:36;2.17;;;2.08;;
20711;SDS011;10517;50.742;4.224;2022-07-10T15:27:02;2.28;;;2.17;;
20711;SDS011;10517;50.742;4.224;2022-07-10T15:29:28;4.68;;;2.45;;